createdAt,value
2023-04-28T00:00:42.240Z,43.8860
2023-04-28T00:01:46.151Z,44.6797
2023-04-28T00:02:50.106Z,50.1334
2023-04-28T00:03:54.163Z,53.5663
2023-04-28T00:04:58.380Z,54.3091
2023-04-28T00:06:02.345Z,52.2581
2023-04-28T00:07:06.263Z,48.5285
2023-04-28T00:08:10.192Z,47.3365
2023-04-28T00:09:14.078Z,51.7337
2023-04-28T00:10:18.000Z,52.6137
2023-04-28T00:11:21.875Z,51.3250
2023-04-28T00:12:26.031Z,50.4976
2023-04-28T00:13:29.911Z,47.8791
2023-04-28T00:14:31.764Z,45.8818
2023-04-28T00:15:35.637Z,50.6901
2023-04-28T00:16:39.639Z,52.9168
2023-04-28T00:17:43.723Z,51.6478
2023-04-28T00:18:47.640Z,50.6346
2023-04-28T00:19:51.729Z,48.6769
2023-04-28T00:20:55.634Z,44.0275
2023-04-28T00:21:59.515Z,46.0328
2023-04-28T00:23:03.577Z,51.1802
2023-04-28T00:24:07.465Z,54.0489
2023-04-28T00:25:11.409Z,53.6146
2023-04-28T00:26:15.275Z,51.6073
2023-04-28T00:27:19.186Z,47.3284
2023-04-28T00:28:33.641Z,46.1152
2023-04-28T00:29:27.553Z,51.2268
2023-04-28T00:30:31.767Z,53.4007
2023-04-28T00:31:35.829Z,52.1091
2023-04-28T00:32:39.998Z,50.8531
2023-04-28T00:33:43.918Z,48.0968
2023-04-28T00:34:47.827Z,44.4231
2023-04-28T00:35:51.717Z,48.5761
2023-04-28T00:36:55.652Z,52.6234
2023-04-28T00:37:59.549Z,53.5026
2023-04-28T00:39:03.442Z,51.7239
2023-04-28T00:40:07.607Z,49.9287
2023-04-28T00:41:11.479Z,44.9593
2023-04-28T00:42:15.627Z,44.2400
2023-04-28T00:43:19.503Z,49.5919
2023-04-28T00:44:23.402Z,53.2555
2023-04-28T00:45:27.342Z,54.4858
2023-04-28T00:46:31.211Z,52.6069
2023-04-28T00:47:35.156Z,49.3341
2023-04-28T00:48:39.085Z,45.3716
2023-04-28T00:49:43.221Z,49.5246
2023-04-28T00:50:47.131Z,53.0700
2023-04-28T00:51:51.004Z,52.7793
2023-04-28T00:52:51.363Z,51.2473
2023-04-28T00:53:55.241Z,49.7458
2023-04-28T00:54:59.432Z,45.0411
2023-04-28T00:56:03.329Z,46.3518
2023-04-28T00:57:07.219Z,51.3675
2023-04-28T00:58:11.236Z,53.8006
2023-04-28T00:59:15.144Z,52.5388
2023-04-28T01:00:19.085Z,51.0076
2023-04-28T01:01:23.057Z,47.2863
2023-04-28T01:02:27.100Z,45.9420
2023-04-28T01:03:31.194Z,50.8586
2023-04-28T01:04:35.165Z,53.3324
2023-04-28T01:05:39.090Z,52.1018
2023-04-28T01:06:42.968Z,50.8804
2023-04-28T01:07:46.886Z,48.4052
2023-04-28T01:08:50.789Z,44.3622
2023-04-28T01:09:55.001Z,48.0751
2023-04-28T01:10:58.916Z,52.3944
2023-04-28T01:12:02.809Z,53.7387
2023-04-28T01:13:06.869Z,52.0030
2023-04-28T01:14:10.799Z,50.3363
2023-04-28T01:15:14.695Z,45.5376
2023-04-28T01:16:18.612Z,45.5754
2023-04-28T01:17:22.500Z,50.6944
2023-04-28T01:18:26.385Z,53.6917
2023-04-28T01:19:30.291Z,53.1052
2023-04-28T01:20:34.455Z,51.3256
2023-04-28T01:21:38.312Z,48.0747
2023-04-28T01:22:42.224Z,45.0980
2023-04-28T01:23:46.105Z,49.7225
2023-04-28T01:24:49.999Z,53.1119
2023-04-28T01:25:53.904Z,52.6430
2023-04-28T01:26:57.824Z,51.0913
2023-04-28T01:28:02.068Z,49.1725
2023-04-28T01:29:05.956Z,44.7472
2023-04-28T01:30:09.872Z,47.7368
2023-04-28T01:31:13.813Z,52.2276
2023-04-28T01:32:17.680Z,53.4478
2023-04-28T01:33:21.602Z,51.8437
2023-04-28T01:34:25.507Z,50.5332
2023-04-28T01:35:29.410Z,46.1987
2023-04-28T01:36:35.240Z,46.3622
2023-04-28T01:37:35.552Z,51.4699
2023-04-28T01:38:39.461Z,53.8589
2023-04-28T01:39:43.410Z,52.7899
2023-04-28T01:40:47.291Z,51.4750
2023-04-28T01:41:51.215Z,48.3694
2023-04-28T01:42:55.417Z,45.2431
2023-04-28T01:43:59.333Z,49.8983
2023-04-28T01:45:03.317Z,53.6781
2023-04-28T01:46:08.012Z,54.2180
2023-04-28T01:47:11.861Z,52.4606
2023-04-28T01:48:16.009Z,50.4079
2023-04-28T01:49:19.893Z,45.3764
2023-04-28T01:50:23.824Z,47.3655
2023-04-28T01:51:27.681Z,52.4155
2023-04-28T01:52:31.611Z,55.2897
2023-04-28T01:53:35.530Z,54.9249
2023-04-28T01:54:39.416Z,52.9839
2023-04-28T01:55:43.664Z,48.3344
2023-04-28T01:56:47.538Z,46.9216
2023-04-28T01:57:51.736Z,51.9744
2023-04-28T01:58:55.632Z,55.2281
2023-04-28T01:59:59.619Z,55.3272
2023-04-28T02:01:03.587Z,53.5290
2023-04-28T02:02:07.575Z,50.2220
2023-04-28T02:03:11.561Z,45.9667
2023-04-28T02:04:15.716Z,50.1757
2023-04-28T02:05:27.989Z,54.5505
2023-04-28T02:06:31.896Z,56.4251
2023-04-28T02:07:35.797Z,54.7570
2023-04-28T02:08:39.706Z,52.0273
2023-04-28T02:09:43.625Z,47.0378
2023-04-28T02:10:47.534Z,50.4576
2023-04-28T02:11:51.469Z,54.6412
2023-04-28T02:12:55.627Z,56.1739
2023-04-28T02:13:59.537Z,54.6000
2023-04-28T02:15:03.679Z,52.7099
2023-04-28T02:16:07.609Z,47.1870
2023-04-28T02:17:11.509Z,46.8133
2023-04-28T02:18:15.386Z,52.1814
2023-04-28T02:19:19.284Z,55.7557
2023-04-28T02:20:23.179Z,57.2183
2023-04-28T02:21:27.084Z,55.5351
2023-04-28T02:22:30.968Z,51.0561
2023-04-28T02:23:34.891Z,48.5529
2023-04-28T02:24:39.019Z,53.1662
2023-04-28T02:25:42.933Z,55.9162
2023-04-28T02:26:46.825Z,55.0868
2023-04-28T02:27:50.855Z,53.5940
2023-04-28T02:28:54.744Z,50.5388
2023-04-28T02:29:58.670Z,45.4887
2023-04-28T02:31:02.563Z,48.5189
2023-04-28T02:32:06.462Z,53.4391
2023-04-28T02:33:10.652Z,56.3652
2023-04-28T02:34:14.797Z,56.9417
2023-04-28T02:35:19.069Z,54.4668
2023-04-28T02:36:23.003Z,48.3698
2023-04-28T02:37:26.966Z,46.8584
2023-04-28T02:38:30.850Z,51.9554
2023-04-28T02:39:34.765Z,55.4686
2023-04-28T02:40:38.663Z,56.7489
2023-04-28T02:41:42.571Z,54.8863
2023-04-28T02:42:42.952Z,51.0715
2023-04-28T02:43:46.855Z,46.1411
2023-04-28T02:44:50.770Z,49.8127
2023-04-28T02:45:54.658Z,54.3083
2023-04-28T02:46:58.562Z,56.6335
2023-04-28T02:48:02.784Z,55.7711
2023-04-28T02:49:06.673Z,53.3255
2023-04-28T02:50:10.589Z,47.5189
2023-04-28T02:51:14.499Z,48.3167
2023-04-28T02:52:18.359Z,53.4234
2023-04-28T02:53:22.276Z,56.4431
2023-04-28T02:54:26.172Z,56.5229
2023-04-28T02:55:30.110Z,54.4883
2023-04-28T02:56:34.002Z,49.7799
2023-04-28T02:57:38.240Z,46.6874
2023-04-28T02:58:42.130Z,51.6843
2023-04-28T02:59:46.025Z,55.6800
2023-04-28T03:00:46.397Z,57.6150
2023-04-28T03:01:50.330Z,56.4841
2023-04-28T03:02:54.322Z,53.2606
2023-04-28T03:03:58.416Z,47.4400
2023-04-28T03:05:02.689Z,50.2379
2023-04-28T03:06:06.567Z,54.9338
2023-04-28T03:07:10.479Z,57.5305
2023-04-28T03:08:14.406Z,57.1197
2023-04-28T03:09:18.303Z,54.7117
2023-04-28T03:10:22.171Z,48.8385
2023-04-28T03:11:26.077Z,49.4996
2023-04-28T03:12:29.963Z,54.4629
2023-04-28T03:13:33.870Z,57.3163
2023-04-28T03:14:37.796Z,57.0843
2023-04-28T03:15:41.897Z,55.0512
2023-04-28T03:16:45.858Z,50.0562
2023-04-28T03:17:50.147Z,46.6598
2023-04-28T03:18:54.102Z,51.6278
2023-04-28T03:19:57.970Z,55.8695
2023-04-28T03:21:01.918Z,58.2932
2023-04-28T03:22:05.780Z,58.1333
2023-04-28T03:23:09.924Z,54.4231
2023-04-28T03:24:14.080Z,48.3926
2023-04-28T03:25:18.447Z,51.6855
2023-04-28T03:26:22.347Z,56.0314
2023-04-28T03:27:26.249Z,58.2610
2023-04-28T03:28:30.157Z,57.3719
2023-04-28T03:29:34.034Z,54.7565
2023-04-28T03:30:37.943Z,48.4820
2023-04-28T03:31:41.850Z,48.0279
2023-04-28T03:32:45.962Z,53.4736
2023-04-28T03:33:49.845Z,57.1696
2023-04-28T03:34:53.776Z,59.2205
2023-04-28T03:35:57.678Z,58.6848
2023-04-28T03:37:01.579Z,52.9296
2023-04-28T03:38:05.703Z,47.7414
2023-04-28T03:39:09.625Z,51.9725
2023-04-28T03:40:13.523Z,56.2608
2023-04-28T03:41:17.449Z,58.7854
2023-04-28T03:42:21.388Z,59.0992
2023-04-28T03:43:25.307Z,55.5338
2023-04-28T03:44:26.090Z,48.5995
2023-04-28T03:45:30.008Z,48.4492
2023-04-28T03:46:33.886Z,53.8165
2023-04-28T03:47:37.809Z,57.4104
2023-04-28T03:48:41.682Z,59.4678
2023-04-28T03:49:45.627Z,59.2557
2023-04-28T03:50:49.507Z,53.0369
2023-04-28T03:51:53.407Z,51.4240
2023-04-28T03:52:57.366Z,55.8563
2023-04-28T03:54:01.260Z,58.2381
2023-04-28T03:55:05.422Z,57.3070
2023-04-28T03:56:06.249Z,55.6211
2023-04-28T03:57:10.132Z,51.2720
2023-04-28T03:58:14.055Z,46.1234
2023-04-28T03:59:17.962Z,49.0055
2023-04-28T04:00:18.539Z,54.3232
2023-04-28T04:01:22.408Z,57.8195
2023-04-28T04:02:26.382Z,59.9399
2023-04-28T04:03:30.461Z,60.0014
2023-04-28T04:04:34.715Z,52.2506
2023-04-28T04:05:38.736Z,50.8775
2023-04-28T04:06:42.620Z,55.6021
2023-04-28T04:07:46.520Z,58.6347
2023-04-28T04:08:50.434Z,59.5802
2023-04-28T04:09:54.322Z,57.9819
2023-04-28T04:10:58.240Z,51.9501
2023-04-28T04:12:02.120Z,48.0288
2023-04-28T04:13:06.012Z,52.8430
2023-04-28T04:14:09.920Z,56.9629
2023-04-28T04:15:13.815Z,59.3784
2023-04-28T04:16:17.842Z,59.6338
2023-04-28T04:17:21.745Z,55.4768
2023-04-28T04:18:25.700Z,48.0542
2023-04-28T04:19:29.591Z,48.6493
2023-04-28T04:20:33.501Z,54.0864
2023-04-28T04:21:37.405Z,57.7274
2023-04-28T04:22:41.312Z,59.9391
2023-04-28T04:23:45.189Z,60.4211
2023-04-28T04:24:49.092Z,53.4270
2023-04-28T04:25:53.126Z,47.6520
2023-04-28T04:26:57.006Z,51.7024
2023-04-28T04:28:01.088Z,56.3155
2023-04-28T04:29:05.006Z,59.2406
2023-04-28T04:30:08.904Z,60.6940
2023-04-28T04:31:12.826Z,58.2742
2023-04-28T04:32:16.780Z,49.5665
2023-04-28T04:33:20.677Z,49.3601
2023-04-28T04:34:32.182Z,54.5792
2023-04-28T04:35:25.468Z,58.2405
2023-04-28T04:36:29.408Z,60.2331
2023-04-28T04:37:33.294Z,60.6963
2023-04-28T04:38:37.214Z,54.0517
2023-04-28T04:39:41.127Z,47.8601
2023-04-28T04:40:45.008Z,51.7678
2023-04-28T04:41:48.930Z,56.4343
2023-04-28T04:42:53.179Z,59.4244
2023-04-28T04:43:57.071Z,60.9854
2023-04-28T04:45:17.199Z,58.6214
2023-04-28T04:46:05.174Z,49.9901
2023-04-28T04:47:09.070Z,52.7066
2023-04-28T04:48:13.037Z,57.0846
2023-04-28T04:49:16.943Z,59.6400
2023-04-28T04:50:20.835Z,60.0807
2023-04-28T04:51:24.712Z,57.9234
2023-04-28T04:52:28.625Z,50.2005
2023-04-28T04:53:32.780Z,47.1650
2023-04-28T04:54:36.662Z,52.2663
2023-04-28T04:55:40.564Z,56.7433
2023-04-28T04:56:44.458Z,59.5787
2023-04-28T04:57:48.374Z,61.1416
2023-04-28T04:58:52.268Z,57.8656
2023-04-28T04:59:56.164Z,52.0539
2023-04-28T05:01:00.080Z,55.8405
2023-04-28T05:02:04.035Z,58.8623
2023-04-28T05:03:08.159Z,59.5651
2023-04-28T05:04:12.215Z,58.3946
2023-04-28T05:05:21.454Z,54.1564
2023-04-28T05:06:20.643Z,47.1741
2023-04-28T05:07:24.551Z,47.8659
2023-04-28T05:08:28.606Z,53.6379
2023-04-28T05:09:32.507Z,57.6239
2023-04-28T05:10:36.400Z,60.0912
2023-04-28T05:11:40.308Z,61.1730
2023-04-28T05:12:45.455Z,54.7590
2023-04-28T05:13:45.375Z,49.9145
2023-04-28T05:14:49.286Z,54.3222
2023-04-28T05:16:05.044Z,58.0332
2023-04-28T05:16:58.457Z,60.1674
2023-04-28T05:18:02.377Z,60.1226
2023-04-28T05:19:06.264Z,55.3492
2023-04-28T05:20:11.073Z,47.9815
2023-04-28T05:21:11.260Z,49.8817
2023-04-28T05:22:15.153Z,54.8697
2023-04-28T05:23:19.096Z,58.2818
2023-04-28T05:24:23.013Z,60.3030
2023-04-28T05:25:26.923Z,60.2818
2023-04-28T05:26:30.804Z,52.4268
2023-04-28T05:27:34.717Z,48.1656
2023-04-28T05:29:13.280Z,52.9629
2023-04-28T05:29:41.610Z,57.9232
2023-04-28T05:30:40.200Z,59.5594
2023-04-28T05:31:44.143Z,60.7022
2023-04-28T05:32:48.063Z,57.5182
2023-04-28T05:33:48.362Z,49.0219
2023-04-28T05:34:52.277Z,50.3566
2023-04-28T05:35:56.187Z,55.4120
2023-04-28T05:37:00.101Z,58.7363
2023-04-28T05:38:04.282Z,60.5030
2023-04-28T05:39:08.164Z,59.7438
2023-04-28T05:40:12.079Z,52.1669
2023-04-28T05:41:16.206Z,50.6863
2023-04-28T05:42:20.106Z,55.6511
2023-04-28T05:43:24.085Z,58.9581
2023-04-28T05:44:27.959Z,60.2962
2023-04-28T05:45:32.000Z,59.0583
2023-04-28T05:46:35.962Z,52.9778
2023-04-28T05:47:39.956Z,47.3863
2023-04-28T05:48:43.967Z,51.1575
2023-04-28T05:49:47.861Z,56.1158
2023-04-28T05:50:52.080Z,59.2976
2023-04-28T05:51:56.001Z,61.0665
2023-04-28T05:52:59.879Z,59.6619
2023-04-28T05:54:03.793Z,51.2158
2023-04-28T05:55:07.694Z,52.5254
2023-04-28T05:56:11.618Z,57.4164
2023-04-28T05:57:15.494Z,60.1521
2023-04-28T05:58:19.648Z,61.6499
2023-04-28T05:59:23.530Z,60.7024
2023-04-28T06:00:27.460Z,53.4487
2023-04-28T06:01:31.575Z,48.8128
2023-04-28T06:02:35.619Z,53.1890
2023-04-28T06:03:39.669Z,58.8994
2023-04-28T06:04:43.804Z,62.0020
2023-04-28T06:05:48.072Z,63.3628
2023-04-28T06:06:52.096Z,62.6785
2023-04-28T06:07:56.079Z,53.6215
2023-04-28T06:09:00.044Z,50.7454
2023-04-28T06:10:03.938Z,56.0419
2023-04-28T06:11:07.833Z,60.0053
2023-04-28T06:12:11.750Z,62.6926
2023-04-28T06:13:15.650Z,64.4848
2023-04-28T06:14:19.794Z,61.1237
2023-04-28T06:15:23.770Z,52.5134
2023-04-28T06:16:27.787Z,52.9095
2023-04-28T06:17:31.770Z,58.3023
2023-04-28T06:18:35.876Z,61.6033
2023-04-28T06:19:39.783Z,61.5862
2023-04-28T06:20:43.669Z,64.3295
2023-04-28T06:21:47.588Z,56.7693
2023-04-28T06:22:51.483Z,44.3078
2023-04-28T06:23:55.382Z,38.4620
2023-04-28T06:24:59.318Z,43.0036
2023-04-28T06:26:03.432Z,49.9592
2023-04-28T06:27:07.314Z,55.8310
2023-04-28T06:28:11.509Z,60.8278
2023-04-28T06:29:15.375Z,61.4579
2023-04-28T06:30:19.264Z,54.9571
2023-04-28T06:31:23.185Z,58.6356
2023-04-28T06:32:27.127Z,62.9820
2023-04-28T06:33:30.988Z,66.7501
2023-04-28T06:34:34.911Z,69.6202
2023-04-28T06:35:39.063Z,61.4764
2023-04-28T06:36:42.948Z,48.2113
2023-04-28T06:37:46.829Z,49.5009
2023-04-28T06:38:50.983Z,55.5781
2023-04-28T06:39:54.886Z,60.7235
2023-04-28T06:40:58.786Z,64.8557
2023-04-28T06:42:02.695Z,65.0435
2023-04-28T06:43:06.581Z,53.0945
2023-04-28T06:44:10.517Z,53.0477
2023-04-28T06:45:14.393Z,58.3702
2023-04-28T06:46:14.784Z,62.7880
2023-04-28T06:47:18.739Z,66.2675
2023-04-28T06:48:22.651Z,66.4895
2023-04-28T06:49:26.529Z,53.2687
2023-04-28T06:50:30.477Z,49.1049
2023-04-28T06:51:34.351Z,54.7047
2023-04-28T06:52:39.659Z,60.0116
2023-04-28T06:53:38.547Z,64.2055
2023-04-28T06:54:42.422Z,66.8920
2023-04-28T06:55:46.319Z,57.7545
2023-04-28T06:56:50.249Z,50.8019
2023-04-28T06:57:54.639Z,55.6324
2023-04-28T06:58:58.612Z,60.7340
2023-04-28T07:00:02.488Z,64.6891
2023-04-28T07:01:06.373Z,67.4249
2023-04-28T07:02:10.297Z,58.6910
2023-04-28T07:03:14.367Z,47.9342
2023-04-28T07:04:18.638Z,51.3888
2023-04-28T07:05:22.744Z,57.1851
2023-04-28T07:06:26.612Z,61.9720
2023-04-28T07:07:30.505Z,65.6130
2023-04-28T07:08:34.425Z,62.7507
2023-04-28T07:09:38.342Z,50.4910
2023-04-28T07:10:42.237Z,51.9059
2023-04-28T07:11:46.580Z,57.5422
2023-04-28T07:12:50.474Z,62.2143
2023-04-28T07:13:54.372Z,65.6901
2023-04-28T07:14:58.281Z,64.6366
2023-04-28T07:16:02.462Z,51.4239
2023-04-28T07:17:06.343Z,49.6240
2023-04-28T07:18:10.504Z,55.4283
2023-04-28T07:19:14.389Z,60.5688
2023-04-28T07:20:18.289Z,64.5181
2023-04-28T07:21:22.259Z,65.9364
2023-04-28T07:22:26.186Z,54.4591
2023-04-28T07:23:30.077Z,49.9584
2023-04-28T07:24:33.958Z,55.3166
2023-04-28T07:25:38.194Z,60.4206
2023-04-28T07:26:42.124Z,64.3505
2023-04-28T07:27:46.614Z,66.5424
2023-04-28T07:28:50.522Z,56.3347
2023-04-28T07:29:54.437Z,46.7778
2023-04-28T07:30:58.329Z,50.8703
2023-04-28T07:32:02.288Z,56.6335
2023-04-28T07:33:06.466Z,61.4753
2023-04-28T07:34:10.493Z,65.1106
2023-04-28T07:35:14.413Z,61.6290
2023-04-28T07:36:18.312Z,50.2444
2023-04-28T07:37:22.230Z,52.6462
2023-04-28T07:38:26.121Z,58.1474
2023-04-28T07:39:30.027Z,62.6154
2023-04-28T07:40:33.968Z,65.8067
2023-04-28T07:41:37.934Z,63.3878
2023-04-28T07:42:41.855Z,50.5662
2023-04-28T07:43:46.083Z,50.8156
2023-04-28T07:44:49.963Z,56.5569
2023-04-28T07:45:53.947Z,61.4454
2023-04-28T07:46:57.829Z,65.0818
2023-04-28T07:48:01.777Z,65.0815
2023-04-28T07:49:05.641Z,53.5419
2023-04-28T07:50:09.546Z,53.5073
2023-04-28T07:51:13.458Z,58.8429
2023-04-28T07:52:17.351Z,63.2490
2023-04-28T07:53:21.505Z,66.3448
2023-04-28T07:54:25.388Z,65.4833
2023-04-28T07:55:29.613Z,52.5189
2023-04-28T07:56:33.508Z,50.5259
2023-04-28T07:57:37.405Z,56.1852
2023-04-28T07:58:41.342Z,61.1927
2023-04-28T07:59:45.233Z,65.0310
2023-04-28T08:00:49.178Z,66.1190
2023-04-28T08:01:53.071Z,54.2777
2023-04-28T08:02:57.149Z,47.5059
2023-04-28T08:04:01.424Z,52.7517
2023-04-28T08:05:05.779Z,58.3855
2023-04-28T08:06:09.749Z,62.8500
2023-04-28T08:07:13.666Z,65.8993
2023-04-28T08:08:17.724Z,58.8702
2023-04-28T08:09:21.627Z,51.6266
2023-04-28T08:10:25.876Z,56.1878
2023-04-28T08:11:29.831Z,61.1205
2023-04-28T08:12:33.701Z,64.7730
2023-04-28T08:13:37.638Z,65.0300
2023-04-28T08:14:41.556Z,55.9679
2023-04-28T08:15:45.603Z,54.6922
2023-04-28T08:16:49.453Z,53.9696
2023-04-28T08:17:53.393Z,52.0728
2023-04-28T08:18:57.375Z,43.0399
2023-04-28T08:20:01.232Z,54.2440
2023-04-28T08:21:05.160Z,46.5578
2023-04-28T08:22:09.050Z,39.5637
2023-04-28T08:23:12.972Z,51.2341
2023-04-28T08:24:17.014Z,54.4542
2023-04-28T08:25:20.964Z,59.4308
2023-04-28T08:26:24.915Z,64.2303
2023-04-28T08:27:28.778Z,66.2484
2023-04-28T08:28:32.929Z,60.6316
2023-04-28T08:29:36.860Z,64.1908
2023-04-28T08:30:40.887Z,68.5800
2023-04-28T08:31:44.856Z,72.0175
2023-04-28T08:32:48.823Z,74.6029
2023-04-28T08:34:56.652Z,50.4316
2023-04-28T08:36:00.547Z,51.1479
2023-04-28T08:37:04.481Z,57.6551
2023-04-28T08:38:08.470Z,63.1999
2023-04-28T08:39:13.653Z,67.7894
2023-04-28T08:40:17.646Z,68.7738
2023-04-28T08:41:21.538Z,55.1949
2023-04-28T08:42:25.451Z,51.6022
2023-04-28T08:43:29.610Z,57.5962
2023-04-28T08:44:33.534Z,63.0972
2023-04-28T08:45:37.717Z,67.6856
2023-04-28T08:46:41.689Z,70.3777
2023-04-28T08:47:45.659Z,58.9782
2023-04-28T08:48:49.624Z,52.0436
2023-04-28T08:49:53.509Z,57.4336
2023-04-28T08:50:57.424Z,62.8885
2023-04-28T08:52:01.380Z,67.4549
2023-04-28T08:53:05.357Z,70.7558
2023-04-28T08:54:18.984Z,61.4508
2023-04-28T08:55:13.768Z,49.3670
2023-04-28T08:56:17.658Z,53.1982
2023-04-28T08:57:21.560Z,59.3024
2023-04-28T08:58:25.519Z,64.3938
2023-04-28T08:59:29.417Z,68.6276
2023-04-28T09:00:33.298Z,66.3626
2023-04-28T09:01:37.248Z,53.0760
2023-04-28T09:02:41.259Z,54.2954
2023-04-28T09:03:45.364Z,60.1681
2023-04-28T09:04:49.557Z,65.1483
2023-04-28T09:05:53.662Z,69.2578
2023-04-28T09:06:57.524Z,68.5421
2023-04-28T09:08:01.429Z,54.4945
2023-04-28T09:09:05.625Z,53.3195
2023-04-28T09:10:09.529Z,59.2138
2023-04-28T09:11:13.703Z,64.2217
2023-04-28T09:12:17.602Z,68.4516
2023-04-28T09:13:21.509Z,69.6417
2023-04-28T09:14:25.422Z,56.2586
2023-04-28T09:15:31.205Z,51.5475
2023-04-28T09:16:31.565Z,57.4997
2023-04-28T09:17:35.517Z,62.6205
2023-04-28T09:18:40.624Z,67.1829
2023-04-28T09:19:44.513Z,70.2023
2023-04-28T09:20:48.437Z,60.0123
2023-04-28T09:21:52.335Z,54.3908
2023-04-28T09:22:56.241Z,59.6283
2023-04-28T09:24:00.396Z,64.5630
2023-04-28T09:25:04.276Z,68.6660
2023-04-28T09:26:08.297Z,71.1636
2023-04-28T09:27:12.291Z,59.8896
2023-04-28T09:28:16.172Z,50.2200
2023-04-28T09:29:20.070Z,54.9859
2023-04-28T09:30:23.977Z,60.8361
2023-04-28T09:31:27.924Z,65.6073
2023-04-28T09:32:32.042Z,69.4325
2023-04-28T09:33:36.070Z,64.1964
2023-04-28T09:34:39.962Z,52.7465
2023-04-28T09:35:43.982Z,56.2848
2023-04-28T09:36:47.866Z,61.8025
2023-04-28T09:37:51.762Z,66.3636
2023-04-28T09:38:57.025Z,70.0379
2023-04-28T09:40:00.938Z,65.5006
2023-04-28T09:41:05.070Z,52.6482
2023-04-28T09:42:09.025Z,55.1961
2023-04-28T09:43:21.474Z,60.9915
2023-04-28T09:44:17.601Z,65.9373
2023-04-28T09:45:21.658Z,69.5616
2023-04-28T09:46:25.595Z,67.1244
2023-04-28T09:47:29.555Z,54.3169
2023-04-28T09:48:33.470Z,56.2634
2023-04-28T09:49:37.347Z,61.7773
2023-04-28T09:50:41.259Z,66.3035
2023-04-28T09:51:45.405Z,69.9415
2023-04-28T09:52:49.320Z,67.5606
2023-04-28T09:53:53.450Z,52.8705
2023-04-28T09:54:57.390Z,51.2824
2023-04-28T09:56:01.308Z,57.5432
2023-04-28T09:57:05.373Z,62.8298
2023-04-28T09:58:09.357Z,67.1758
2023-04-28T09:59:13.258Z,69.0883
2023-04-28T10:00:17.157Z,57.2075
2023-04-28T10:01:21.124Z,53.6318
2023-04-28T10:02:42.731Z,59.2583
2023-04-28T10:03:30.098Z,64.4602
2023-04-28T10:04:34.416Z,68.3052
2023-04-28T10:05:38.553Z,70.0076
2023-04-28T10:06:42.537Z,57.5767
2023-04-28T10:07:46.465Z,51.9571
2023-04-28T10:08:50.366Z,57.6173
2023-04-28T10:09:54.253Z,62.9252
2023-04-28T10:10:58.176Z,67.1674
2023-04-28T10:12:02.057Z,69.9935
2023-04-28T10:13:06.096Z,60.1362
2023-04-28T10:14:10.250Z,52.0428
2023-04-28T10:15:14.128Z,57.2072
2023-04-28T10:16:18.285Z,62.6186
2023-04-28T10:17:22.199Z,66.9511
2023-04-28T10:18:26.105Z,70.1348
2023-04-28T10:19:29.992Z,62.0907
2023-04-28T10:20:33.880Z,51.4888
2023-04-28T10:21:37.781Z,55.7074
2023-04-28T10:22:41.722Z,61.3046
2023-04-28T10:23:45.664Z,65.7471
2023-04-28T10:24:49.585Z,66.9809
2023-04-28T10:25:53.699Z,57.5462
2023-04-28T10:26:57.615Z,56.5171
2023-04-28T10:28:01.495Z,56.3943
2023-04-28T10:29:05.394Z,56.2802
2023-04-28T10:30:22.919Z,56.1728
2023-04-28T10:31:13.869Z,56.1314
2023-04-28T10:32:17.796Z,56.1490
2023-04-28T10:33:21.706Z,56.0975
2023-04-28T10:34:25.612Z,56.0753
2023-04-28T10:35:29.521Z,56.0625
2023-04-28T10:36:36.542Z,56.1011
2023-04-28T10:37:35.246Z,47.9154
2023-04-28T10:38:39.133Z,39.3694
2023-04-28T10:39:43.032Z,39.8753
2023-04-28T10:40:46.936Z,47.2784
2023-04-28T10:41:50.862Z,54.0425
2023-04-28T10:42:54.783Z,59.7040
2023-04-28T10:43:58.722Z,64.2269
2023-04-28T10:45:02.579Z,65.1699
2023-04-28T10:46:06.656Z,68.8683
2023-04-28T10:47:10.607Z,72.4311
2023-04-28T10:48:14.502Z,75.1129
2023-04-28T10:49:18.399Z,77.0277
2023-04-28T10:50:29.354Z,68.2207
2023-04-28T10:51:26.807Z,51.4429
2023-04-28T10:52:30.705Z,44.3769
2023-04-28T10:53:34.619Z,49.0162
2023-04-28T10:54:38.572Z,55.8100
2023-04-28T10:55:42.426Z,61.5414
2023-04-28T10:56:46.368Z,66.2570
2023-04-28T10:57:50.252Z,65.7888
2023-04-28T10:58:54.392Z,56.2203
2023-04-28T10:59:58.273Z,59.1945
2023-04-28T11:01:02.442Z,64.1873
2023-04-28T11:02:06.399Z,68.4784
2023-04-28T11:03:10.510Z,71.8706
2023-04-28T11:04:14.642Z,66.3909
2023-04-28T11:05:18.709Z,52.0687
2023-04-28T11:06:22.799Z,52.0228
2023-04-28T11:07:26.677Z,58.0035
2023-04-28T11:08:30.595Z,63.3420
2023-04-28T11:09:34.536Z,67.7768
2023-04-28T11:10:38.440Z,69.0309
2023-04-28T11:11:42.572Z,56.4392
2023-04-28T11:12:46.484Z,52.9115
2023-04-28T11:13:50.372Z,58.3581
2023-04-28T11:14:54.268Z,63.5194
2023-04-28T11:15:58.401Z,66.2196
2023-04-28T11:17:02.259Z,64.2092
2023-04-28T11:18:06.198Z,55.6367
2023-04-28T11:19:10.084Z,46.4856
2023-04-28T11:20:13.991Z,52.4138
2023-04-28T11:21:17.990Z,58.8732
2023-04-28T11:22:21.954Z,63.5298
2023-04-28T11:23:26.004Z,67.7246
2023-04-28T11:24:26.200Z,66.4344
2023-04-28T11:25:30.082Z,56.1053
2023-04-28T11:26:34.035Z,58.4905
2023-04-28T11:27:38.036Z,63.4716
2023-04-28T11:28:41.906Z,67.7948
2023-04-28T11:29:45.824Z,71.2463
2023-04-28T11:30:49.751Z,67.0475
2023-04-28T11:31:53.683Z,52.8857
2023-04-28T11:32:57.709Z,52.7592
2023-04-28T11:34:01.845Z,58.5709
2023-04-28T11:35:05.730Z,63.6914
2023-04-28T11:36:09.627Z,67.9891
2023-04-28T11:37:13.544Z,68.8234
2023-04-28T11:38:17.441Z,56.1931
2023-04-28T11:39:21.361Z,53.8961
2023-04-28T11:40:25.371Z,59.2578
2023-04-28T11:41:29.262Z,64.1596
2023-04-28T11:42:33.139Z,68.3163
2023-04-28T11:43:46.963Z,69.8492
2023-04-28T11:44:41.524Z,56.6687
2023-04-28T11:45:45.431Z,52.5357
2023-04-28T11:46:49.447Z,57.8186
2023-04-28T11:47:53.374Z,62.9569
2023-04-28T11:48:57.262Z,67.3523
2023-04-28T11:50:01.229Z,70.1288
2023-04-28T11:51:05.126Z,59.7180
2023-04-28T11:52:09.043Z,51.1625
2023-04-28T11:53:13.074Z,55.6537
2023-04-28T11:54:16.937Z,61.0461
2023-04-28T11:55:20.823Z,65.6741
2023-04-28T11:56:24.962Z,69.4214
2023-04-28T11:57:28.884Z,63.1192
2023-04-28T11:58:32.804Z,50.9668
2023-04-28T11:59:37.708Z,53.3369
2023-04-28T12:00:36.888Z,59.0709
2023-04-28T12:01:40.778Z,63.8291
2023-04-28T12:02:44.882Z,68.0280
2023-04-28T12:03:49.083Z,67.4392
2023-04-28T12:04:53.005Z,58.7686
2023-04-28T12:05:57.039Z,61.6848
2023-04-28T12:07:00.962Z,66.0338
2023-04-28T12:08:04.859Z,69.7046
2023-04-28T12:09:08.782Z,72.6420
2023-04-28T12:10:12.728Z,65.4342
2023-04-28T12:11:18.530Z,51.3361
2023-04-28T12:12:18.938Z,51.7062
2023-04-28T12:13:19.123Z,57.4494
2023-04-28T12:14:23.016Z,62.4287
2023-04-28T12:15:26.923Z,66.8259
2023-04-28T12:16:31.907Z,68.5985
2023-04-28T12:17:35.959Z,58.2434
2023-04-28T12:18:40.080Z,58.6009
2023-04-28T12:19:44.276Z,63.3839
2023-04-28T12:20:48.249Z,67.5628
2023-04-28T12:21:52.164Z,70.9490
2023-04-28T12:22:56.082Z,69.0136
2023-04-28T12:24:00.190Z,54.4608
2023-04-28T12:25:04.080Z,51.4571
2023-04-28T12:26:08.004Z,57.1583
2023-04-28T12:27:11.932Z,62.3732
2023-04-28T12:28:15.834Z,66.7375
2023-04-28T12:29:19.748Z,69.2013
2023-04-28T12:30:23.659Z,58.3932
2023-04-28T12:31:23.798Z,53.2751
2023-04-28T12:32:27.741Z,58.1875
2023-04-28T12:33:31.594Z,63.1820
2023-04-28T12:34:35.515Z,67.3842
2023-04-28T12:35:39.438Z,70.2192
2023-04-28T12:36:43.337Z,60.4620
2023-04-28T12:37:47.247Z,52.3092
2023-04-28T12:38:51.144Z,56.8076
2023-04-28T12:39:55.080Z,61.9772
2023-04-28T12:40:59.128Z,66.3658
2023-04-28T12:42:03.039Z,69.7855
2023-04-28T12:43:06.959Z,62.5116
2023-04-28T12:44:10.865Z,51.1594
2023-04-28T12:45:14.751Z,54.2192
2023-04-28T12:46:18.696Z,59.8039
2023-04-28T12:47:22.581Z,64.4669
2023-04-28T12:48:26.483Z,68.3902
2023-04-28T12:49:30.394Z,65.6847
2023-04-28T12:50:34.397Z,53.0194
2023-04-28T12:51:39.014Z,54.1202
2023-04-28T12:52:42.976Z,59.6651
2023-04-28T12:53:46.896Z,64.2833